createdAt,value
2022-09-29T00:01:43.593Z,9.13
2022-09-29T00:06:44.991Z,9.06
2022-09-29T00:11:46.361Z,8.96
2022-09-29T00:16:47.841Z,8.89
2022-09-29T00:21:49.227Z,8.80
2022-09-29T00:26:50.596Z,8.70
2022-09-29T00:31:52.022Z,8.58
2022-09-29T00:36:53.457Z,8.50
2022-09-29T00:41:54.857Z,8.40
2022-09-29T00:47:02.591Z,8.32
2022-09-29T00:52:06.736Z,8.23
2022-09-29T00:57:11.549Z,8.16
2022-09-29T01:02:18.743Z,8.07
2022-09-29T01:07:23.769Z,7.99
2022-09-29T01:12:25.491Z,7.94
2022-09-29T01:17:28.258Z,7.91
2022-09-29T01:23:08.210Z,7.90
2022-09-29T01:28:28.378Z,7.90
2022-09-29T01:33:54.687Z,7.89
2022-09-29T01:39:22.096Z,7.84
2022-09-29T01:44:51.599Z,7.82
2022-09-29T01:50:00.282Z,7.80
2022-09-29T01:55:05.880Z,7.79
2022-09-29T02:00:09.816Z,7.76
2022-09-29T02:05:46.480Z,7.73
2022-09-29T02:10:59.506Z,7.70
2022-09-29T02:16:02.559Z,7.63
2022-09-29T02:21:04.084Z,7.62
2022-09-29T02:26:05.685Z,7.59
2022-09-29T02:31:07.501Z,7.54
2022-09-29T02:36:25.280Z,7.48
2022-09-29T02:41:51.398Z,7.42
2022-09-29T02:47:17.463Z,7.37
2022-09-29T02:52:36.875Z,7.33
2022-09-29T02:57:46.716Z,7.27
2022-09-29T03:02:48.407Z,7.25
2022-09-29T03:07:49.737Z,7.21
2022-09-29T03:12:51.149Z,7.19
2022-09-29T03:17:55.642Z,7.11
2022-09-29T03:22:57.694Z,7.08
2022-09-29T03:27:59.249Z,7.02
2022-09-29T03:33:00.599Z,6.99
2022-09-29T03:38:02.077Z,6.96
2022-09-29T03:43:03.557Z,6.90
2022-09-29T03:48:04.967Z,6.87
2022-09-29T03:53:06.329Z,6.80
2022-09-29T03:58:07.732Z,6.75
2022-09-29T04:03:09.387Z,6.73
2022-09-29T04:08:10.724Z,6.69
2022-09-29T04:13:14.543Z,6.66
2022-09-29T04:18:17.987Z,6.62
2022-09-29T04:23:19.322Z,6.59
2022-09-29T04:28:20.688Z,6.54
2022-09-29T04:33:22.092Z,6.51
2022-09-29T04:38:23.781Z,6.53
2022-09-29T04:43:25.218Z,6.48
2022-09-29T04:48:26.569Z,6.41
2022-09-29T04:53:28.258Z,6.40
2022-09-29T04:58:29.594Z,6.36
2022-09-29T05:03:31.043Z,6.32
2022-09-29T05:08:32.416Z,6.29
2022-09-29T05:13:33.975Z,6.24
2022-09-29T05:18:35.428Z,6.21
2022-09-29T05:23:36.761Z,6.17
2022-09-29T05:28:38.802Z,6.16
2022-09-29T05:33:40.795Z,6.16
2022-09-29T05:38:42.144Z,6.14
2022-09-29T05:43:43.483Z,6.11
2022-09-29T05:48:46.403Z,6.14
2022-09-29T05:53:48.149Z,6.15
2022-09-29T05:58:49.919Z,6.17
2022-09-29T06:03:56.678Z,6.20
2022-09-29T06:08:59.175Z,6.23
2022-09-29T06:14:02.360Z,6.28
2022-09-29T06:19:04.840Z,6.42
2022-09-29T06:24:06.459Z,6.59
2022-09-29T06:29:08.042Z,6.77
2022-09-29T06:34:09.937Z,7.01
2022-09-29T06:39:14.069Z,7.25
2022-09-29T06:44:15.687Z,7.42
2022-09-29T06:49:18.325Z,7.47
2022-09-29T06:54:22.150Z,7.54
2022-09-29T06:59:23.536Z,7.53
2022-09-29T07:04:25.086Z,7.65
2022-09-29T07:09:26.480Z,7.90
2022-09-29T07:14:27.813Z,7.87
2022-09-29T07:19:29.201Z,8.18
2022-09-29T07:24:30.604Z,8.17
2022-09-29T07:29:31.953Z,8.36
2022-09-29T07:34:33.281Z,8.58
2022-09-29T07:39:34.681Z,8.71
2022-09-29T07:44:36.072Z,8.75
2022-09-29T07:49:37.496Z,8.63
2022-09-29T07:54:38.855Z,8.89
2022-09-29T07:59:45.990Z,9.48
2022-09-29T08:04:52.457Z,9.65
2022-09-29T08:09:58.204Z,10.09
2022-09-29T08:15:00.703Z,10.46
2022-09-29T08:20:02.054Z,11.56
2022-09-29T08:25:03.991Z,11.81
2022-09-29T08:30:05.968Z,12.53
2022-09-29T08:35:07.878Z,13.02
2022-09-29T08:40:09.886Z,13.50
2022-09-29T08:45:24.969Z,13.88
2022-09-29T08:55:53.942Z,15.17
2022-09-29T09:01:14.236Z,15.84
2022-09-29T09:06:26.584Z,16.59
2022-09-29T09:11:52.827Z,17.58
2022-09-29T09:17:01.623Z,18.44
2022-09-29T09:22:33.283Z,19.23
2022-09-29T09:27:44.635Z,19.78
2022-09-29T09:32:54.123Z,20.56
2022-09-29T09:38:00.379Z,21.09
2022-09-29T09:43:10.000Z,21.42
2022-09-29T09:48:22.057Z,21.92
2022-09-29T09:53:40.948Z,22.59
2022-09-29T09:59:06.884Z,22.91
2022-09-29T10:04:14.238Z,23.23
2022-09-29T10:09:16.116Z,22.56
2022-09-29T10:14:26.251Z,21.95
2022-09-29T10:20:03.254Z,21.31
2022-09-29T10:25:15.555Z,20.53
2022-09-29T10:30:23.728Z,20.05
2022-09-29T10:35:45.202Z,19.63
2022-09-29T10:41:07.531Z,19.48
2022-09-29T10:46:45.082Z,18.93
2022-09-29T10:51:57.124Z,18.63
2022-09-29T10:56:59.517Z,18.12
2022-09-29T11:02:28.402Z,17.88
2022-09-29T11:07:50.298Z,17.37
2022-09-29T11:13:01.257Z,17.09
2022-09-29T11:18:24.478Z,16.75
2022-09-29T11:23:36.148Z,16.47
2022-09-29T11:29:00.962Z,16.31
2022-09-29T11:34:34.778Z,16.32
2022-09-29T11:39:44.364Z,16.54
2022-09-29T11:45:03.717Z,16.53
2022-09-29T11:50:26.497Z,16.27
2022-09-29T11:55:58.939Z,16.22
2022-09-29T12:01:18.360Z,16.35
2022-09-29T12:06:44.514Z,16.93
2022-09-29T12:12:21.971Z,18.42
2022-09-29T12:17:23.129Z,19.29
2022-09-29T12:22:25.418Z,19.65
2022-09-29T12:27:33.356Z,20.94
2022-09-29T12:32:41.764Z,23.18
2022-09-29T12:37:45.892Z,25.02
2022-09-29T12:43:29.316Z,26.12
2022-09-29T12:48:58.924Z,24.59
2022-09-29T12:54:26.981Z,24.41
2022-09-29T12:59:58.741Z,25.00
2022-09-29T13:05:02.871Z,26.23
2022-09-29T13:10:27.640Z,26.47
2022-09-29T13:15:46.416Z,25.08
2022-09-29T13:21:11.617Z,24.09
2022-09-29T13:26:31.807Z,25.14
2022-09-29T13:43:38.854Z,26.97
2022-09-29T13:48:47.217Z,25.95
2022-09-29T13:54:20.936Z,24.13
2022-09-29T13:59:24.361Z,23.14
2022-09-29T14:04:55.028Z,22.22
2022-09-29T14:15:04.866Z,21.21
2022-09-29T14:20:25.763Z,20.73
2022-09-29T14:25:42.070Z,20.20
2022-09-29T14:30:55.204Z,19.61
2022-09-29T14:35:59.428Z,19.26
2022-09-29T14:41:24.253Z,19.00
2022-09-29T14:46:49.649Z,18.66
2022-09-29T14:52:03.831Z,18.57
2022-09-29T14:57:32.565Z,18.65
2022-09-29T15:02:35.209Z,18.37
2022-09-29T15:07:41.164Z,18.41
2022-09-29T15:12:42.646Z,18.52
2022-09-29T15:17:54.395Z,18.70
2022-09-29T15:23:34.544Z,18.73
2022-09-29T15:28:38.712Z,18.56
2022-09-29T15:33:42.952Z,18.25
2022-09-29T15:38:44.415Z,17.82
2022-09-29T15:43:55.698Z,17.67
2022-09-29T15:49:19.773Z,17.57
2022-09-29T15:54:21.728Z,17.26
2022-09-29T15:59:42.604Z,17.01
2022-09-29T16:04:46.872Z,16.73
2022-09-29T16:09:49.371Z,16.55
2022-09-29T16:14:55.460Z,16.28
2022-09-29T16:19:59.489Z,16.03
2022-09-29T16:25:36.611Z,15.77
2022-09-29T16:30:38.024Z,15.55
2022-09-29T16:35:55.485Z,15.38
2022-09-29T16:40:57.072Z,15.08
2022-09-29T16:46:01.789Z,14.82
2022-09-29T16:51:37.650Z,14.54
2022-09-29T16:56:36.347Z,14.28
2022-09-29T17:01:39.538Z,14.02
2022-09-29T17:06:47.500Z,13.74
2022-09-29T17:11:48.988Z,13.51
2022-09-29T17:16:51.131Z,13.25
2022-09-29T17:21:55.830Z,12.95
2022-09-29T17:26:58.864Z,12.69
2022-09-29T17:32:00.337Z,12.52
2022-09-29T17:37:01.986Z,12.34
2022-09-29T17:42:03.664Z,12.18
2022-09-29T17:47:17.510Z,12.08
2022-09-29T17:52:26.569Z,11.92
2022-09-29T17:57:28.528Z,11.80
2022-09-29T18:02:29.975Z,11.60
2022-09-29T18:07:31.408Z,11.50
2022-09-29T18:12:32.752Z,11.37
2022-09-29T18:17:34.226Z,11.29
2022-09-29T18:22:35.586Z,11.18
2022-09-29T18:27:37.193Z,11.04
2022-09-29T18:32:39.348Z,10.95
2022-09-29T18:37:40.794Z,10.93
2022-09-29T18:42:44.275Z,10.98
2022-09-29T18:47:46.216Z,10.98
2022-09-29T18:52:51.452Z,10.95
2022-09-29T18:57:54.116Z,10.95
2022-09-29T19:02:56.100Z,10.91
2022-09-29T19:07:59.878Z,10.86
2022-09-29T19:13:03.326Z,10.84
2022-09-29T19:18:06.037Z,10.77
2022-09-29T19:23:07.384Z,10.70
2022-09-29T19:28:08.867Z,10.64
2022-09-29T19:33:14.667Z,10.55
2022-09-29T19:38:16.980Z,10.48
2022-09-29T19:43:18.898Z,10.32
2022-09-29T19:48:22.589Z,10.18
2022-09-29T19:53:24.100Z,10.14
2022-09-29T19:58:25.720Z,10.07
2022-09-29T20:03:27.204Z,9.97
2022-09-29T20:08:29.162Z,9.89
2022-09-29T20:13:30.814Z,9.81
2022-09-29T20:18:33.031Z,9.76
2022-09-29T20:23:34.422Z,9.65
2022-09-29T20:28:36.950Z,9.55
2022-09-29T20:33:38.388Z,9.47
2022-09-29T20:38:41.976Z,9.39
2022-09-29T20:43:47.278Z,9.39
2022-09-29T20:48:56.861Z,9.38
2022-09-29T20:54:00.884Z,9.36
2022-09-29T20:59:02.884Z,9.31
2022-09-29T21:04:13.437Z,9.31
2022-09-29T21:09:17.327Z,9.26
2022-09-29T21:14:24.683Z,9.21
2022-09-29T21:19:26.495Z,9.12
2022-09-29T21:24:28.117Z,9.05
2022-09-29T21:29:29.497Z,8.98
2022-09-29T21:34:31.051Z,8.94
2022-09-29T21:39:32.456Z,8.89
2022-09-29T21:44:33.879Z,8.90
2022-09-29T21:49:35.309Z,8.88
2022-09-29T21:54:36.748Z,8.81
2022-09-29T21:59:38.216Z,8.79
2022-09-29T22:04:39.593Z,8.76
2022-09-29T22:09:40.977Z,8.74
2022-09-29T22:14:45.872Z,8.66
2022-09-29T22:19:49.747Z,8.60
2022-09-29T22:24:51.125Z,8.55
2022-09-29T22:29:52.487Z,8.51
2022-09-29T22:34:53.847Z,8.42
2022-09-29T22:39:55.291Z,8.38
2022-09-29T22:44:56.671Z,8.36
2022-09-29T22:49:58.097Z,8.32
2022-09-29T22:54:59.465Z,8.29
2022-09-29T23:00:01.044Z,8.27
2022-09-29T23:05:02.427Z,8.24
2022-09-29T23:10:04.308Z,8.21
2022-09-29T23:15:06.319Z,8.18
2022-09-29T23:20:08.433Z,8.14
2022-09-29T23:25:09.860Z,8.08
2022-09-29T23:30:11.449Z,8.06
2022-09-29T23:35:12.796Z,8.03
2022-09-29T23:40:14.223Z,7.96
2022-09-29T23:45:15.663Z,7.94
2022-09-29T23:50:17.029Z,7.88
2022-09-29T23:55:18.405Z,7.81
